sensor_id;sensor_type;location;lat;lon;timestamp;P1;durP1;ratioP1;P2;durP2;ratioP2
18445;SDS011;9352;50.888;4.466;2023-09-19T00:02:04;12.38;;;2.70;;
18445;SDS011;9352;50.888;4.466;2023-09-19T00:04:34;17.48;;;3.50;;
18445;SDS011;9352;50.888;4.466;2023-09-19T00:07:04;9.35;;;2.63;;
18445;SDS011;9352;50.888;4.466;2023-09-19T00:09:31;12.20;;;2.60;;
18445;SDS011;9352;50.888;4.466;2023-09-19T00:12:02;12.80;;;3.28;;
18445;SDS011;9352;50.888;4.466;2023-09-19T00:14:30;13.52;;;2.30;;
18445;SDS011;9352;50.888;4.466;2023-09-19T00:16:59;12.57;;;2.63;;
18445;SDS011;9352;50.888;4.466;2023-09-19T00:19:31;12.85;;;2.63;;
18445;SDS011;9352;50.888;4.466;2023-09-19T00:22:00;18.23;;;3.10;;
18445;SDS011;9352;50.888;4.466;2023-09-19T00:24:27;12.23;;;2.40;;
18445;SDS011;9352;50.888;4.466;2023-09-19T00:26:54;28.85;;;2.80;;
18445;SDS011;9352;50.888;4.466;2023-09-19T00:29:21;17.48;;;2.65;;
18445;SDS011;9352;50.888;4.466;2023-09-19T00:31:48;11.63;;;3.05;;
18445;SDS011;9352;50.888;4.466;2023-09-19T00:34:16;9.35;;;2.50;;
18445;SDS011;9352;50.888;4.466;2023-09-19T00:36:43;9.95;;;2.20;;
18445;SDS011;9352;50.888;4.466;2023-09-19T00:39:11;12.90;;;2.28;;
18445;SDS011;9352;50.888;4.466;2023-09-19T00:41:38;14.25;;;2.58;;
18445;SDS011;9352;50.888;4.466;2023-09-19T00:44:06;13.88;;;2.50;;
18445;SDS011;9352;50.888;4.466;2023-09-19T00:46:34;17.88;;;3.13;;
18445;SDS011;9352;50.888;4.466;2023-09-19T00:49:02;15.00;;;2.92;;
18445;SDS011;9352;50.888;4.466;2023-09-19T00:51:29;17.60;;;3.30;;
18445;SDS011;9352;50.888;4.466;2023-09-19T00:53:56;12.52;;;2.25;;
18445;SDS011;9352;50.888;4.466;2023-09-19T00:56:25;16.10;;;2.60;;
18445;SDS011;9352;50.888;4.466;2023-09-19T00:58:52;13.93;;;2.78;;
18445;SDS011;9352;50.888;4.466;2023-09-19T01:01:19;17.50;;;2.63;;
18445;SDS011;9352;50.888;4.466;2023-09-19T01:03:47;11.18;;;2.65;;
18445;SDS011;9352;50.888;4.466;2023-09-19T01:06:15;17.40;;;2.65;;
18445;SDS011;9352;50.888;4.466;2023-09-19T01:08:42;18.83;;;2.50;;
18445;SDS011;9352;50.888;4.466;2023-09-19T01:11:11;10.05;;;2.70;;
18445;SDS011;9352;50.888;4.466;2023-09-19T01:13:50;12.68;;;2.70;;
18445;SDS011;9352;50.888;4.466;2023-09-19T01:16:28;13.75;;;2.70;;
18445;SDS011;9352;50.888;4.466;2023-09-19T01:19:07;15.23;;;2.55;;
18445;SDS011;9352;50.888;4.466;2023-09-19T01:21:55;11.25;;;2.15;;
18445;SDS011;9352;50.888;4.466;2023-09-19T01:24:34;16.13;;;2.90;;
18445;SDS011;9352;50.888;4.466;2023-09-19T01:27:25;19.33;;;3.03;;
18445;SDS011;9352;50.888;4.466;2023-09-19T01:30:12;21.73;;;3.30;;
18445;SDS011;9352;50.888;4.466;2023-09-19T01:32:40;20.48;;;3.67;;
18445;SDS011;9352;50.888;4.466;2023-09-19T01:35:09;9.63;;;2.50;;
18445;SDS011;9352;50.888;4.466;2023-09-19T01:37:38;20.52;;;3.22;;
18445;SDS011;9352;50.888;4.466;2023-09-19T01:40:09;17.92;;;3.10;;
18445;SDS011;9352;50.888;4.466;2023-09-19T01:42:43;21.50;;;3.30;;
18445;SDS011;9352;50.888;4.466;2023-09-19T01:45:19;13.52;;;2.50;;
18445;SDS011;9352;50.888;4.466;2023-09-19T01:47:53;19.48;;;2.75;;
18445;SDS011;9352;50.888;4.466;2023-09-19T01:50:24;17.73;;;2.70;;
18445;SDS011;9352;50.888;4.466;2023-09-19T01:52:57;12.57;;;2.70;;
18445;SDS011;9352;50.888;4.466;2023-09-19T01:55:29;11.75;;;2.75;;
18445;SDS011;9352;50.888;4.466;2023-09-19T01:58:01;14.32;;;3.30;;
18445;SDS011;9352;50.888;4.466;2023-09-19T02:00:35;14.45;;;3.05;;
18445;SDS011;9352;50.888;4.466;2023-09-19T02:03:04;14.60;;;2.70;;
18445;SDS011;9352;50.888;4.466;2023-09-19T02:05:31;12.95;;;2.80;;
18445;SDS011;9352;50.888;4.466;2023-09-19T02:07:58;17.48;;;2.80;;
18445;SDS011;9352;50.888;4.466;2023-09-19T02:10:25;11.63;;;2.70;;
18445;SDS011;9352;50.888;4.466;2023-09-19T02:12:52;15.43;;;3.25;;
18445;SDS011;9352;50.888;4.466;2023-09-19T02:15:19;11.20;;;2.50;;
18445;SDS011;9352;50.888;4.466;2023-09-19T02:17:48;19.67;;;2.92;;
18445;SDS011;9352;50.888;4.466;2023-09-19T02:20:15;18.75;;;3.55;;
18445;SDS011;9352;50.888;4.466;2023-09-19T02:22:45;13.93;;;2.28;;
18445;SDS011;9352;50.888;4.466;2023-09-19T02:25:11;18.48;;;2.90;;
18445;SDS011;9352;50.888;4.466;2023-09-19T02:27:39;12.75;;;2.80;;
18445;SDS011;9352;50.888;4.466;2023-09-19T02:30:07;19.20;;;3.15;;
18445;SDS011;9352;50.888;4.466;2023-09-19T02:32:34;15.18;;;3.00;;
18445;SDS011;9352;50.888;4.466;2023-09-19T02:35:06;10.88;;;2.92;;
18445;SDS011;9352;50.888;4.466;2023-09-19T02:37:36;16.48;;;3.00;;
18445;SDS011;9352;50.888;4.466;2023-09-19T02:40:03;17.23;;;3.05;;
18445;SDS011;9352;50.888;4.466;2023-09-19T02:42:43;17.67;;;2.83;;
18445;SDS011;9352;50.888;4.466;2023-09-19T02:45:13;14.20;;;2.53;;
18445;SDS011;9352;50.888;4.466;2023-09-19T02:47:40;16.63;;;2.60;;
18445;SDS011;9352;50.888;4.466;2023-09-19T02:50:09;12.70;;;2.63;;
18445;SDS011;9352;50.888;4.466;2023-09-19T02:52:36;14.45;;;2.70;;
18445;SDS011;9352;50.888;4.466;2023-09-19T02:55:03;14.73;;;2.70;;
18445;SDS011;9352;50.888;4.466;2023-09-19T02:57:34;12.48;;;2.53;;
18445;SDS011;9352;50.888;4.466;2023-09-19T03:00:01;13.88;;;2.50;;
18445;SDS011;9352;50.888;4.466;2023-09-19T03:02:30;15.57;;;3.00;;
18445;SDS011;9352;50.888;4.466;2023-09-19T03:04:58;17.10;;;2.95;;
18445;SDS011;9352;50.888;4.466;2023-09-19T03:07:27;23.50;;;2.97;;
18445;SDS011;9352;50.888;4.466;2023-09-19T03:09:54;17.75;;;2.78;;
18445;SDS011;9352;50.888;4.466;2023-09-19T03:12:21;19.25;;;3.45;;
18445;SDS011;9352;50.888;4.466;2023-09-19T03:14:48;11.23;;;2.78;;
18445;SDS011;9352;50.888;4.466;2023-09-19T03:17:15;11.05;;;2.65;;
18445;SDS011;9352;50.888;4.466;2023-09-19T03:19:44;13.75;;;2.65;;
18445;SDS011;9352;50.888;4.466;2023-09-19T03:22:12;12.85;;;2.92;;
18445;SDS011;9352;50.888;4.466;2023-09-19T03:24:40;15.70;;;3.10;;
18445;SDS011;9352;50.888;4.466;2023-09-19T03:27:08;10.30;;;2.88;;
18445;SDS011;9352;50.888;4.466;2023-09-19T03:29:35;20.73;;;2.70;;
18445;SDS011;9352;50.888;4.466;2023-09-19T03:32:02;14.73;;;3.05;;
18445;SDS011;9352;50.888;4.466;2023-09-19T03:34:30;11.60;;;2.92;;
18445;SDS011;9352;50.888;4.466;2023-09-19T03:36:57;12.20;;;2.80;;
18445;SDS011;9352;50.888;4.466;2023-09-19T03:39:24;11.00;;;2.58;;
18445;SDS011;9352;50.888;4.466;2023-09-19T03:41:53;13.07;;;2.55;;
18445;SDS011;9352;50.888;4.466;2023-09-19T03:44:19;11.60;;;2.63;;
18445;SDS011;9352;50.888;4.466;2023-09-19T03:46:47;14.95;;;3.08;;
18445;SDS011;9352;50.888;4.466;2023-09-19T03:49:14;14.68;;;2.80;;
18445;SDS011;9352;50.888;4.466;2023-09-19T03:51:41;11.98;;;2.50;;
18445;SDS011;9352;50.888;4.466;2023-09-19T03:54:07;16.50;;;3.15;;
18445;SDS011;9352;50.888;4.466;2023-09-19T03:56:35;19.40;;;3.92;;
18445;SDS011;9352;50.888;4.466;2023-09-19T03:59:03;17.98;;;3.25;;
18445;SDS011;9352;50.888;4.466;2023-09-19T04:01:30;12.90;;;2.70;;
18445;SDS011;9352;50.888;4.466;2023-09-19T04:03:58;21.17;;;3.53;;
18445;SDS011;9352;50.888;4.466;2023-09-19T04:06:33;12.70;;;2.72;;
18445;SDS011;9352;50.888;4.466;2023-09-19T04:09:00;19.70;;;3.20;;
18445;SDS011;9352;50.888;4.466;2023-09-19T04:11:28;15.23;;;3.10;;
18445;SDS011;9352;50.888;4.466;2023-09-19T04:13:55;16.55;;;3.33;;
18445;SDS011;9352;50.888;4.466;2023-09-19T04:16:23;13.32;;;3.45;;
18445;SDS011;9352;50.888;4.466;2023-09-19T04:18:50;17.25;;;2.90;;
18445;SDS011;9352;50.888;4.466;2023-09-19T04:21:17;17.40;;;3.58;;
18445;SDS011;9352;50.888;4.466;2023-09-19T04:23:44;19.40;;;3.13;;
18445;SDS011;9352;50.888;4.466;2023-09-19T04:26:11;17.35;;;3.05;;
18445;SDS011;9352;50.888;4.466;2023-09-19T04:28:38;21.20;;;3.42;;
18445;SDS011;9352;50.888;4.466;2023-09-19T04:31:05;16.55;;;2.60;;
18445;SDS011;9352;50.888;4.466;2023-09-19T04:33:35;22.80;;;4.15;;
18445;SDS011;9352;50.888;4.466;2023-09-19T04:36:02;21.70;;;3.63;;
18445;SDS011;9352;50.888;4.466;2023-09-19T04:38:32;16.52;;;2.95;;
18445;SDS011;9352;50.888;4.466;2023-09-19T04:40:59;13.50;;;3.10;;
18445;SDS011;9352;50.888;4.466;2023-09-19T04:43:26;13.48;;;2.78;;
18445;SDS011;9352;50.888;4.466;2023-09-19T04:45:54;12.70;;;2.67;;
18445;SDS011;9352;50.888;4.466;2023-09-19T04:48:21;14.20;;;2.53;;
18445;SDS011;9352;50.888;4.466;2023-09-19T04:50:51;14.50;;;3.20;;
18445;SDS011;9352;50.888;4.466;2023-09-19T04:53:18;14.88;;;2.63;;
18445;SDS011;9352;50.888;4.466;2023-09-19T04:55:49;19.60;;;2.90;;
18445;SDS011;9352;50.888;4.466;2023-09-19T04:58:17;12.85;;;2.97;;
18445;SDS011;9352;50.888;4.466;2023-09-19T05:00:44;11.32;;;3.17;;
18445;SDS011;9352;50.888;4.466;2023-09-19T05:03:11;18.42;;;2.83;;
18445;SDS011;9352;50.888;4.466;2023-09-19T05:05:38;15.75;;;2.47;;
18445;SDS011;9352;50.888;4.466;2023-09-19T05:08:07;10.98;;;2.35;;
18445;SDS011;9352;50.888;4.466;2023-09-19T05:10:35;14.70;;;2.78;;
18445;SDS011;9352;50.888;4.466;2023-09-19T05:13:03;22.45;;;2.70;;
18445;SDS011;9352;50.888;4.466;2023-09-19T05:15:30;16.75;;;3.05;;
18445;SDS011;9352;50.888;4.466;2023-09-19T05:17:57;19.65;;;3.90;;
18445;SDS011;9352;50.888;4.466;2023-09-19T05:20:24;18.45;;;3.05;;
18445;SDS011;9352;50.888;4.466;2023-09-19T05:22:57;18.25;;;3.38;;
18445;SDS011;9352;50.888;4.466;2023-09-19T05:25:27;14.05;;;3.20;;
18445;SDS011;9352;50.888;4.466;2023-09-19T05:27:56;17.42;;;3.25;;
18445;SDS011;9352;50.888;4.466;2023-09-19T05:30:23;19.67;;;3.28;;
18445;SDS011;9352;50.888;4.466;2023-09-19T05:32:52;19.58;;;2.85;;
18445;SDS011;9352;50.888;4.466;2023-09-19T05:35:20;11.65;;;2.17;;
18445;SDS011;9352;50.888;4.466;2023-09-19T05:37:47;19.15;;;3.47;;
18445;SDS011;9352;50.888;4.466;2023-09-19T05:40:16;19.08;;;3.30;;
18445;SDS011;9352;50.888;4.466;2023-09-19T05:42:44;21.77;;;3.30;;
18445;SDS011;9352;50.888;4.466;2023-09-19T05:45:11;20.33;;;3.20;;
18445;SDS011;9352;50.888;4.466;2023-09-19T05:47:39;16.15;;;3.35;;
18445;SDS011;9352;50.888;4.466;2023-09-19T05:50:09;20.20;;;3.38;;
18445;SDS011;9352;50.888;4.466;2023-09-19T05:52:36;24.70;;;4.18;;
18445;SDS011;9352;50.888;4.466;2023-09-19T05:55:03;18.60;;;4.20;;
18445;SDS011;9352;50.888;4.466;2023-09-19T05:57:32;20.50;;;3.95;;
18445;SDS011;9352;50.888;4.466;2023-09-19T06:00:00;14.55;;;3.03;;
18445;SDS011;9352;50.888;4.466;2023-09-19T06:02:33;15.20;;;2.95;;
18445;SDS011;9352;50.888;4.466;2023-09-19T06:05:01;16.73;;;3.28;;
18445;SDS011;9352;50.888;4.466;2023-09-19T06:07:28;18.92;;;2.53;;
18445;SDS011;9352;50.888;4.466;2023-09-19T06:10:01;15.48;;;2.90;;
18445;SDS011;9352;50.888;4.466;2023-09-19T06:12:30;23.85;;;3.45;;
18445;SDS011;9352;50.888;4.466;2023-09-19T06:14:58;12.73;;;3.42;;
18445;SDS011;9352;50.888;4.466;2023-09-19T06:17:27;12.30;;;2.85;;
18445;SDS011;9352;50.888;4.466;2023-09-19T06:19:53;15.15;;;2.92;;
18445;SDS011;9352;50.888;4.466;2023-09-19T06:22:21;15.50;;;3.20;;
18445;SDS011;9352;50.888;4.466;2023-09-19T06:24:49;26.48;;;3.55;;
18445;SDS011;9352;50.888;4.466;2023-09-19T06:27:16;14.52;;;2.80;;
18445;SDS011;9352;50.888;4.466;2023-09-19T06:29:43;16.73;;;4.20;;
18445;SDS011;9352;50.888;4.466;2023-09-19T06:32:12;21.27;;;3.78;;
18445;SDS011;9352;50.888;4.466;2023-09-19T06:34:39;14.90;;;2.60;;
18445;SDS011;9352;50.888;4.466;2023-09-19T06:37:08;17.58;;;2.70;;
18445;SDS011;9352;50.888;4.466;2023-09-19T06:39:35;18.42;;;3.00;;
18445;SDS011;9352;50.888;4.466;2023-09-19T06:42:02;9.68;;;2.53;;
18445;SDS011;9352;50.888;4.466;2023-09-19T06:44:30;12.73;;;2.35;;
18445;SDS011;9352;50.888;4.466;2023-09-19T06:46:57;17.27;;;3.10;;
18445;SDS011;9352;50.888;4.466;2023-09-19T06:49:26;13.65;;;2.70;;
18445;SDS011;9352;50.888;4.466;2023-09-19T06:51:54;16.35;;;3.10;;
18445;SDS011;9352;50.888;4.466;2023-09-19T06:54:22;15.80;;;3.15;;
18445;SDS011;9352;50.888;4.466;2023-09-19T06:56:49;17.10;;;2.90;;
18445;SDS011;9352;50.888;4.466;2023-09-19T06:59:16;12.25;;;2.60;;
18445;SDS011;9352;50.888;4.466;2023-09-19T07:01:43;17.85;;;4.50;;
18445;SDS011;9352;50.888;4.466;2023-09-19T07:04:10;13.20;;;2.60;;
18445;SDS011;9352;50.888;4.466;2023-09-19T07:06:39;12.60;;;2.95;;
18445;SDS011;9352;50.888;4.466;2023-09-19T07:09:06;12.73;;;2.65;;
18445;SDS011;9352;50.888;4.466;2023-09-19T07:11:33;27.15;;;4.03;;
18445;SDS011;9352;50.888;4.466;2023-09-19T07:14:00;20.15;;;3.08;;
18445;SDS011;9352;50.888;4.466;2023-09-19T07:16:28;13.90;;;2.88;;
18445;SDS011;9352;50.888;4.466;2023-09-19T07:18:55;14.95;;;2.47;;
18445;SDS011;9352;50.888;4.466;2023-09-19T07:21:22;13.93;;;2.67;;
18445;SDS011;9352;50.888;4.466;2023-09-19T07:23:51;16.40;;;3.20;;
18445;SDS011;9352;50.888;4.466;2023-09-19T07:26:17;19.27;;;3.22;;
18445;SDS011;9352;50.888;4.466;2023-09-19T07:28:44;14.60;;;3.17;;
18445;SDS011;9352;50.888;4.466;2023-09-19T07:31:11;11.35;;;3.17;;
18445;SDS011;9352;50.888;4.466;2023-09-19T07:33:39;19.52;;;3.17;;
18445;SDS011;9352;50.888;4.466;2023-09-19T07:36:09;20.08;;;3.10;;
18445;SDS011;9352;50.888;4.466;2023-09-19T07:38:38;16.95;;;3.00;;
18445;SDS011;9352;50.888;4.466;2023-09-19T07:41:07;21.95;;;3.38;;
18445;SDS011;9352;50.888;4.466;2023-09-19T07:43:35;17.73;;;3.10;;
18445;SDS011;9352;50.888;4.466;2023-09-19T07:46:04;14.30;;;3.60;;
18445;SDS011;9352;50.888;4.466;2023-09-19T07:48:33;23.58;;;3.80;;
18445;SDS011;9352;50.888;4.466;2023-09-19T07:51:01;13.80;;;3.60;;
18445;SDS011;9352;50.888;4.466;2023-09-19T07:53:29;19.70;;;3.30;;
18445;SDS011;9352;50.888;4.466;2023-09-19T07:56:02;17.38;;;3.10;;
18445;SDS011;9352;50.888;4.466;2023-09-19T07:58:32;17.20;;;2.58;;
18445;SDS011;9352;50.888;4.466;2023-09-19T08:01:03;14.75;;;2.83;;
18445;SDS011;9352;50.888;4.466;2023-09-19T08:03:31;12.82;;;2.80;;
18445;SDS011;9352;50.888;4.466;2023-09-19T08:05:58;10.75;;;3.00;;
18445;SDS011;9352;50.888;4.466;2023-09-19T08:08:26;19.92;;;3.28;;
18445;SDS011;9352;50.888;4.466;2023-09-19T08:10:53;13.55;;;3.13;;
18445;SDS011;9352;50.888;4.466;2023-09-19T08:13:21;15.95;;;3.33;;
18445;SDS011;9352;50.888;4.466;2023-09-19T08:15:50;19.25;;;4.20;;
18445;SDS011;9352;50.888;4.466;2023-09-19T08:18:18;15.48;;;3.38;;
18445;SDS011;9352;50.888;4.466;2023-09-19T08:20:48;16.50;;;3.25;;
18445;SDS011;9352;50.888;4.466;2023-09-19T08:23:16;13.48;;;3.35;;
18445;SDS011;9352;50.888;4.466;2023-09-19T08:25:45;15.65;;;3.10;;
18445;SDS011;9352;50.888;4.466;2023-09-19T08:28:12;24.95;;;3.85;;
18445;SDS011;9352;50.888;4.466;2023-09-19T08:30:43;11.95;;;2.90;;
18445;SDS011;9352;50.888;4.466;2023-09-19T08:33:12;18.17;;;4.13;;
18445;SDS011;9352;50.888;4.466;2023-09-19T08:35:40;17.65;;;3.15;;
18445;SDS011;9352;50.888;4.466;2023-09-19T08:38:08;21.88;;;4.07;;
18445;SDS011;9352;50.888;4.466;2023-09-19T08:40:36;14.77;;;3.53;;
18445;SDS011;9352;50.888;4.466;2023-09-19T08:43:04;11.10;;;2.85;;
18445;SDS011;9352;50.888;4.466;2023-09-19T08:45:32;18.42;;;3.17;;
18445;SDS011;9352;50.888;4.466;2023-09-19T08:48:00;13.82;;;3.17;;
18445;SDS011;9352;50.888;4.466;2023-09-19T08:50:42;18.40;;;2.97;;
18445;SDS011;9352;50.888;4.466;2023-09-19T08:53:15;9.63;;;2.47;;
18445;SDS011;9352;50.888;4.466;2023-09-19T08:55:47;18.15;;;3.05;;
18445;SDS011;9352;50.888;4.466;2023-09-19T08:58:20;16.30;;;3.40;;
18445;SDS011;9352;50.888;4.466;2023-09-19T09:00:53;14.55;;;3.60;;
18445;SDS011;9352;50.888;4.466;2023-09-19T09:03:23;15.95;;;3.00;;
18445;SDS011;9352;50.888;4.466;2023-09-19T09:05:51;16.20;;;3.10;;
18445;SDS011;9352;50.888;4.466;2023-09-19T09:08:18;12.10;;;2.75;;
18445;SDS011;9352;50.888;4.466;2023-09-19T09:10:46;17.90;;;3.00;;
18445;SDS011;9352;50.888;4.466;2023-09-19T09:13:14;12.65;;;2.63;;
18445;SDS011;9352;50.888;4.466;2023-09-19T09:15:41;14.60;;;2.65;;
18445;SDS011;9352;50.888;4.466;2023-09-19T09:18:09;14.52;;;3.08;;
18445;SDS011;9352;50.888;4.466;2023-09-19T09:20:38;12.60;;;2.65;;
18445;SDS011;9352;50.888;4.466;2023-09-19T09:23:05;20.13;;;3.00;;
18445;SDS011;9352;50.888;4.466;2023-09-19T09:25:47;18.77;;;4.07;;
18445;SDS011;9352;50.888;4.466;2023-09-19T09:28:21;17.52;;;2.80;;
18445;SDS011;9352;50.888;4.466;2023-09-19T09:30:50;12.70;;;2.83;;
18445;SDS011;9352;50.888;4.466;2023-09-19T09:33:17;14.65;;;3.05;;
18445;SDS011;9352;50.888;4.466;2023-09-19T09:35:49;8.20;;;2.40;;
18445;SDS011;9352;50.888;4.466;2023-09-19T09:38:18;11.27;;;3.50;;
18445;SDS011;9352;50.888;4.466;2023-09-19T09:40:46;12.52;;;3.22;;
18445;SDS011;9352;50.888;4.466;2023-09-19T09:43:27;13.77;;;3.53;;
18445;SDS011;9352;50.888;4.466;2023-09-19T09:46:12;20.38;;;3.60;;
18445;SDS011;9352;50.888;4.466;2023-09-19T09:49:10;11.70;;;2.35;;
18445;SDS011;9352;50.888;4.466;2023-09-19T09:51:58;14.65;;;3.08;;
18445;SDS011;9352;50.888;4.466;2023-09-19T09:54:29;11.73;;;2.53;;
18445;SDS011;9352;50.888;4.466;2023-09-19T09:57:02;9.93;;;2.47;;
18445;SDS011;9352;50.888;4.466;2023-09-19T09:59:45;20.13;;;2.72;;
18445;SDS011;9352;50.888;4.466;2023-09-19T10:02:13;9.70;;;2.60;;
18445;SDS011;9352;50.888;4.466;2023-09-19T10:04:45;8.55;;;2.60;;
18445;SDS011;9352;50.888;4.466;2023-09-19T10:07:25;9.18;;;2.20;;
18445;SDS011;9352;50.888;4.466;2023-09-19T10:10:01;12.35;;;2.60;;
18445;SDS011;9352;50.888;4.466;2023-09-19T10:12:42;13.45;;;2.35;;
18445;SDS011;9352;50.888;4.466;2023-09-19T10:15:11;7.63;;;2.58;;
18445;SDS011;9352;50.888;4.466;2023-09-19T10:17:40;7.50;;;2.15;;
18445;SDS011;9352;50.888;4.466;2023-09-19T10:20:11;11.30;;;2.65;;
18445;SDS011;9352;50.888;4.466;2023-09-19T10:23:05;10.80;;;2.47;;
18445;SDS011;9352;50.888;4.466;2023-09-19T10:25:36;7.28;;;2.05;;
18445;SDS011;9352;50.888;4.466;2023-09-19T10:28:05;7.53;;;2.05;;
18445;SDS011;9352;50.888;4.466;2023-09-19T10:30:36;10.40;;;2.70;;
18445;SDS011;9352;50.888;4.466;2023-09-19T10:33:10;9.05;;;2.08;;
18445;SDS011;9352;50.888;4.466;2023-09-19T10:35:38;8.07;;;2.30;;
18445;SDS011;9352;50.888;4.466;2023-09-19T10:38:09;5.70;;;1.92;;
18445;SDS011;9352;50.888;4.466;2023-09-19T10:40:37;8.90;;;2.40;;
18445;SDS011;9352;50.888;4.466;2023-09-19T10:43:10;8.32;;;2.30;;
18445;SDS011;9352;50.888;4.466;2023-09-19T10:45:39;5.60;;;2.08;;
18445;SDS011;9352;50.888;4.466;2023-09-19T10:48:07;4.00;;;1.92;;
18445;SDS011;9352;50.888;4.466;2023-09-19T10:50:35;6.07;;;1.90;;
18445;SDS011;9352;50.888;4.466;2023-09-19T10:53:11;7.50;;;2.13;;
18445;SDS011;9352;50.888;4.466;2023-09-19T10:55:40;6.90;;;1.70;;
18445;SDS011;9352;50.888;4.466;2023-09-19T10:58:13;9.48;;;2.20;;
18445;SDS011;9352;50.888;4.466;2023-09-19T11:00:54;7.70;;;2.00;;
18445;SDS011;9352;50.888;4.466;2023-09-19T11:03:22;6.55;;;1.63;;
18445;SDS011;9352;50.888;4.466;2023-09-19T11:08:58;7.15;;;2.25;;
18445;SDS011;9352;50.888;4.466;2023-09-19T11:11:45;6.97;;;2.28;;
18445;SDS011;9352;50.888;4.466;2023-09-19T11:14:29;6.95;;;1.90;;
18445;SDS011;9352;50.888;4.466;2023-09-19T11:20:20;8.02;;;1.92;;
18445;SDS011;9352;50.888;4.466;2023-09-19T11:25:52;7.00;;;1.70;;
18445;SDS011;9352;50.888;4.466;2023-09-19T11:28:29;6.80;;;1.70;;
18445;SDS011;9352;50.888;4.466;2023-09-19T11:30:56;7.78;;;2.10;;
18445;SDS011;9352;50.888;4.466;2023-09-19T11:33:24;5.13;;;1.45;;
18445;SDS011;9352;50.888;4.466;2023-09-19T11:36:03;3.95;;;1.52;;
18445;SDS011;9352;50.888;4.466;2023-09-19T11:41:39;7.60;;;1.67;;
18445;SDS011;9352;50.888;4.466;2023-09-19T11:47:04;6.25;;;1.85;;
18445;SDS011;9352;50.888;4.466;2023-09-19T11:49:32;4.97;;;1.50;;
18445;SDS011;9352;50.888;4.466;2023-09-19T11:52:00;6.25;;;1.67;;
18445;SDS011;9352;50.888;4.466;2023-09-19T11:54:30;6.32;;;2.13;;
18445;SDS011;9352;50.888;4.466;2023-09-19T11:56:59;12.65;;;2.35;;
18445;SDS011;9352;50.888;4.466;2023-09-19T11:59:27;3.58;;;1.92;;
18445;SDS011;9352;50.888;4.466;2023-09-19T12:01:56;6.60;;;2.22;;
18445;SDS011;9352;50.888;4.466;2023-09-19T12:04:33;8.23;;;1.92;;
18445;SDS011;9352;50.888;4.466;2023-09-19T12:07:03;15.73;;;2.47;;
18445;SDS011;9352;50.888;4.466;2023-09-19T12:09:36;10.27;;;2.17;;
18445;SDS011;9352;50.888;4.466;2023-09-19T12:12:10;3.88;;;1.60;;
18445;SDS011;9352;50.888;4.466;2023-09-19T12:14:40;6.15;;;1.88;;
18445;SDS011;9352;50.888;4.466;2023-09-19T12:17:08;4.03;;;1.50;;
18445;SDS011;9352;50.888;4.466;2023-09-19T12:19:35;4.35;;;1.55;;
18445;SDS011;9352;50.888;4.466;2023-09-19T12:22:03;6.25;;;1.40;;
18445;SDS011;9352;50.888;4.466;2023-09-19T12:24:30;6.80;;;1.80;;
18445;SDS011;9352;50.888;4.466;2023-09-19T12:27:00;7.68;;;2.00;;
18445;SDS011;9352;50.888;4.466;2023-09-19T12:29:32;12.82;;;2.05;;
18445;SDS011;9352;50.888;4.466;2023-09-19T12:32:08;6.65;;;1.98;;
18445;SDS011;9352;50.888;4.466;2023-09-19T12:34:36;4.03;;;1.55;;
18445;SDS011;9352;50.888;4.466;2023-09-19T12:37:08;10.18;;;2.13;;
18445;SDS011;9352;50.888;4.466;2023-09-19T12:39:41;8.35;;;1.70;;
18445;SDS011;9352;50.888;4.466;2023-09-19T12:42:09;3.85;;;1.88;;
18445;SDS011;9352;50.888;4.466;2023-09-19T12:44:41;6.90;;;1.77;;
18445;SDS011;9352;50.888;4.466;2023-09-19T12:47:13;6.18;;;1.45;;
18445;SDS011;9352;50.888;4.466;2023-09-19T12:50:06;10.68;;;1.75;;
18445;SDS011;9352;50.888;4.466;2023-09-19T12:52:42;6.47;;;1.27;;
18445;SDS011;9352;50.888;4.466;2023-09-19T12:55:22;11.32;;;2.15;;
18445;SDS011;9352;50.888;4.466;2023-09-19T12:57:59;5.00;;;1.77;;
18445;SDS011;9352;50.888;4.466;2023-09-19T13:00:46;10.10;;;1.70;;
18445;SDS011;9352;50.888;4.466;2023-09-19T13:03:17;4.40;;;1.42;;
18445;SDS011;9352;50.888;4.466;2023-09-19T13:05:50;3.63;;;1.75;;
18445;SDS011;9352;50.888;4.466;2023-09-19T13:08:22;6.00;;;1.73;;
18445;SDS011;9352;50.888;4.466;2023-09-19T13:10:59;6.82;;;1.85;;
18445;SDS011;9352;50.888;4.466;2023-09-19T13:13:38;7.55;;;2.03;;
18445;SDS011;9352;50.888;4.466;2023-09-19T13:16:11;6.13;;;1.73;;
18445;SDS011;9352;50.888;4.466;2023-09-19T13:18:48;10.95;;;2.05;;
18445;SDS011;9352;50.888;4.466;2023-09-19T13:21:28;5.22;;;1.20;;
18445;SDS011;9352;50.888;4.466;2023-09-19T13:24:17;6.88;;;1.52;;
18445;SDS011;9352;50.888;4.466;2023-09-19T13:26:44;8.70;;;1.45;;
18445;SDS011;9352;50.888;4.466;2023-09-19T13:29:11;7.90;;;1.50;;
18445;SDS011;9352;50.888;4.466;2023-09-19T13:31:40;7.18;;;2.00;;
18445;SDS011;9352;50.888;4.466;2023-09-19T13:34:08;7.95;;;2.28;;
18445;SDS011;9352;50.888;4.466;2023-09-19T13:36:35;10.35;;;2.13;;
18445;SDS011;9352;50.888;4.466;2023-09-19T13:39:03;9.05;;;1.60;;
18445;SDS011;9352;50.888;4.466;2023-09-19T13:41:32;4.93;;;1.75;;
18445;SDS011;9352;50.888;4.466;2023-09-19T13:44:01;7.45;;;2.00;;
18445;SDS011;9352;50.888;4.466;2023-09-19T13:46:29;20.38;;;2.10;;
18445;SDS011;9352;50.888;4.466;2023-09-19T13:48:59;9.10;;;1.88;;
18445;SDS011;9352;50.888;4.466;2023-09-19T13:51:28;5.45;;;1.60;;
18445;SDS011;9352;50.888;4.466;2023-09-19T13:53:56;10.60;;;2.10;;
18445;SDS011;9352;50.888;4.466;2023-09-19T13:56:23;11.88;;;2.10;;
18445;SDS011;9352;50.888;4.466;2023-09-19T13:58:50;8.82;;;1.90;;
18445;SDS011;9352;50.888;4.466;2023-09-19T14:01:17;8.15;;;1.92;;
18445;SDS011;9352;50.888;4.466;2023-09-19T14:03:44;10.75;;;2.20;;
18445;SDS011;9352;50.888;4.466;2023-09-19T14:06:17;10.82;;;3.22;;
18445;SDS011;9352;50.888;4.466;2023-09-19T14:08:44;6.18;;;2.20;;
18445;SDS011;9352;50.888;4.466;2023-09-19T14:11:13;10.02;;;1.98;;
18445;SDS011;9352;50.888;4.466;2023-09-19T14:13:41;10.40;;;2.30;;
18445;SDS011;9352;50.888;4.466;2023-09-19T14:16:12;7.80;;;2.33;;
18445;SDS011;9352;50.888;4.466;2023-09-19T14:18:39;3.30;;;1.73;;
18445;SDS011;9352;50.888;4.466;2023-09-19T14:21:07;7.70;;;2.40;;
18445;SDS011;9352;50.888;4.466;2023-09-19T14:23:38;6.72;;;2.00;;
18445;SDS011;9352;50.888;4.466;2023-09-19T14:26:05;5.25;;;1.63;;
18445;SDS011;9352;50.888;4.466;2023-09-19T14:28:31;15.20;;;2.00;;
18445;SDS011;9352;50.888;4.466;2023-09-19T14:31:03;5.90;;;1.70;;
18445;SDS011;9352;50.888;4.466;2023-09-19T14:33:31;8.95;;;2.30;;
18445;SDS011;9352;50.888;4.466;2023-09-19T14:35:58;7.70;;;1.85;;
18445;SDS011;9352;50.888;4.466;2023-09-19T14:38:28;3.80;;;1.73;;
18445;SDS011;9352;50.888;4.466;2023-09-19T14:41:00;10.38;;;2.30;;
18445;SDS011;9352;50.888;4.466;2023-09-19T14:43:27;5.10;;;1.48;;
18445;SDS011;9352;50.888;4.466;2023-09-19T14:45:55;12.15;;;1.83;;
18445;SDS011;9352;50.888;4.466;2023-09-19T14:48:22;10.45;;;2.35;;
18445;SDS011;9352;50.888;4.466;2023-09-19T14:50:51;5.20;;;2.05;;
18445;SDS011;9352;50.888;4.466;2023-09-19T14:53:18;5.93;;;2.00;;
18445;SDS011;9352;50.888;4.466;2023-09-19T14:55:45;7.40;;;1.83;;
18445;SDS011;9352;50.888;4.466;2023-09-19T14:58:18;11.05;;;2.05;;
18445;SDS011;9352;50.888;4.466;2023-09-19T15:00:46;7.80;;;1.80;;
18445;SDS011;9352;50.888;4.466;2023-09-19T15:03:13;4.35;;;1.80;;
18445;SDS011;9352;50.888;4.466;2023-09-19T15:05:40;6.53;;;1.90;;
18445;SDS011;9352;50.888;4.466;2023-09-19T15:08:07;8.18;;;1.77;;
18445;SDS011;9352;50.888;4.466;2023-09-19T15:10:33;6.90;;;2.28;;
18445;SDS011;9352;50.888;4.466;2023-09-19T15:13:01;5.50;;;1.88;;
18445;SDS011;9352;50.888;4.466;2023-09-19T15:15:29;8.68;;;2.22;;
18445;SDS011;9352;50.888;4.466;2023-09-19T15:17:57;3.05;;;1.67;;
18445;SDS011;9352;50.888;4.466;2023-09-19T15:20:24;5.38;;;2.20;;
18445;SDS011;9352;50.888;4.466;2023-09-19T15:22:52;8.35;;;1.70;;